sensor_id;sensor_type;location;lat;lon;timestamp;temperature;humidity
19037;DHT22;9651;49.138;8.900;2023-11-21T00:01:33;9.40;99.90
19037;DHT22;9651;49.138;8.900;2023-11-21T00:05:35;9.30;99.90
19037;DHT22;9651;49.138;8.900;2023-11-21T00:09:38;9.30;99.90
19037;DHT22;9651;49.138;8.900;2023-11-21T00:13:40;9.30;99.90
19037;DHT22;9651;49.138;8.900;2023-11-21T00:17:42;9.30;99.90
19037;DHT22;9651;49.138;8.900;2023-11-21T00:21:44;9.30;99.90
19037;DHT22;9651;49.138;8.900;2023-11-21T00:25:47;9.30;99.90
19037;DHT22;9651;49.138;8.900;2023-11-21T00:29:49;9.30;99.90
19037;DHT22;9651;49.138;8.900;2023-11-21T00:33:51;9.30;99.90
19037;DHT22;9651;49.138;8.900;2023-11-21T00:37:52;9.40;99.90
19037;DHT22;9651;49.138;8.900;2023-11-21T00:41:56;9.30;99.90
19037;DHT22;9651;49.138;8.900;2023-11-21T00:45:57;9.40;99.90
19037;DHT22;9651;49.138;8.900;2023-11-21T00:49:59;9.40;99.90
19037;DHT22;9651;49.138;8.900;2023-11-21T00:54:01;9.40;99.90
19037;DHT22;9651;49.138;8.900;2023-11-21T00:58:05;9.40;99.90
19037;DHT22;9651;49.138;8.900;2023-11-21T01:02:07;9.40;99.90
19037;DHT22;9651;49.138;8.900;2023-11-21T01:06:11;9.50;99.90
19037;DHT22;9651;49.138;8.900;2023-11-21T01:10:13;9.50;99.90
19037;DHT22;9651;49.138;8.900;2023-11-21T01:14:16;9.50;99.90
19037;DHT22;9651;49.138;8.900;2023-11-21T01:18:18;9.50;99.90
19037;DHT22;9651;49.138;8.900;2023-11-21T01:22:20;9.50;99.90
19037;DHT22;9651;49.138;8.900;2023-11-21T01:26:26;9.50;99.90
19037;DHT22;9651;49.138;8.900;2023-11-21T01:30:29;9.50;99.90
19037;DHT22;9651;49.138;8.900;2023-11-21T01:34:32;9.40;99.90
19037;DHT22;9651;49.138;8.900;2023-11-21T01:38:34;9.50;99.90
19037;DHT22;9651;49.138;8.900;2023-11-21T01:42:36;9.50;99.90
19037;DHT22;9651;49.138;8.900;2023-11-21T01:46:40;9.50;99.90
19037;DHT22;9651;49.138;8.900;2023-11-21T01:50:42;9.60;99.90
19037;DHT22;9651;49.138;8.900;2023-11-21T01:54:45;9.50;99.90
19037;DHT22;9651;49.138;8.900;2023-11-21T01:58:48;9.50;99.90
19037;DHT22;9651;49.138;8.900;2023-11-21T02:02:51;9.50;99.90
19037;DHT22;9651;49.138;8.900;2023-11-21T02:06:53;9.60;99.90
19037;DHT22;9651;49.138;8.900;2023-11-21T02:10:55;9.50;99.90
19037;DHT22;9651;49.138;8.900;2023-11-21T02:14:58;9.50;99.90
19037;DHT22;9651;49.138;8.900;2023-11-21T02:19:01;9.50;99.90
19037;DHT22;9651;49.138;8.900;2023-11-21T02:23:06;9.60;99.90
19037;DHT22;9651;49.138;8.900;2023-11-21T02:27:08;9.60;99.90
19037;DHT22;9651;49.138;8.900;2023-11-21T02:31:10;9.60;99.90
19037;DHT22;9651;49.138;8.900;2023-11-21T02:35:13;9.50;99.90
19037;DHT22;9651;49.138;8.900;2023-11-21T02:39:18;9.50;99.90
19037;DHT22;9651;49.138;8.900;2023-11-21T02:43:22;9.40;99.90
19037;DHT22;9651;49.138;8.900;2023-11-21T02:47:24;9.40;99.90
19037;DHT22;9651;49.138;8.900;2023-11-21T02:51:26;9.40;99.90
19037;DHT22;9651;49.138;8.900;2023-11-21T02:55:29;9.30;99.90
19037;DHT22;9651;49.138;8.900;2023-11-21T02:59:33;9.30;99.90
19037;DHT22;9651;49.138;8.900;2023-11-21T03:03:35;9.30;99.90
19037;DHT22;9651;49.138;8.900;2023-11-21T03:07:41;9.40;99.90
19037;DHT22;9651;49.138;8.900;2023-11-21T03:11:44;9.30;99.90
19037;DHT22;9651;49.138;8.900;2023-11-21T03:15:46;9.30;99.90
19037;DHT22;9651;49.138;8.900;2023-11-21T03:19:49;9.30;99.90
19037;DHT22;9651;49.138;8.900;2023-11-21T03:23:51;9.30;99.90
19037;DHT22;9651;49.138;8.900;2023-11-21T03:27:54;9.30;99.90
19037;DHT22;9651;49.138;8.900;2023-11-21T03:31:56;9.30;99.90
19037;DHT22;9651;49.138;8.900;2023-11-21T03:35:58;9.30;99.90
19037;DHT22;9651;49.138;8.900;2023-11-21T03:40:00;9.30;99.90
19037;DHT22;9651;49.138;8.900;2023-11-21T03:44:06;9.30;99.90
19037;DHT22;9651;49.138;8.900;2023-11-21T03:48:08;9.30;99.90
19037;DHT22;9651;49.138;8.900;2023-11-21T03:52:12;9.30;99.90
19037;DHT22;9651;49.138;8.900;2023-11-21T03:56:14;9.30;99.90
19037;DHT22;9651;49.138;8.900;2023-11-21T04:00:18;9.30;99.90
19037;DHT22;9651;49.138;8.900;2023-11-21T04:04:21;9.30;99.90
19037;DHT22;9651;49.138;8.900;2023-11-21T04:08:23;9.40;99.90
19037;DHT22;9651;49.138;8.900;2023-11-21T04:12:26;9.40;99.90
19037;DHT22;9651;49.138;8.900;2023-11-21T04:16:29;9.50;99.90
19037;DHT22;9651;49.138;8.900;2023-11-21T04:20:31;9.40;99.90
19037;DHT22;9651;49.138;8.900;2023-11-21T04:24:32;9.40;99.90
19037;DHT22;9651;49.138;8.900;2023-11-21T04:28:34;9.40;99.90
19037;DHT22;9651;49.138;8.900;2023-11-21T04:32:37;9.40;99.90
19037;DHT22;9651;49.138;8.900;2023-11-21T04:36:39;9.40;99.90
19037;DHT22;9651;49.138;8.900;2023-11-21T04:40:41;9.40;99.90
19037;DHT22;9651;49.138;8.900;2023-11-21T04:44:43;9.50;99.90
19037;DHT22;9651;49.138;8.900;2023-11-21T04:48:46;9.50;99.90
19037;DHT22;9651;49.138;8.900;2023-11-21T04:52:48;9.50;99.90
19037;DHT22;9651;49.138;8.900;2023-11-21T04:56:50;9.50;99.90
19037;DHT22;9651;49.138;8.900;2023-11-21T05:00:52;9.50;99.90
19037;DHT22;9651;49.138;8.900;2023-11-21T05:04:55;9.50;99.90
19037;DHT22;9651;49.138;8.900;2023-11-21T05:08:57;9.50;99.90
19037;DHT22;9651;49.138;8.900;2023-11-21T05:12:59;9.50;99.90
19037;DHT22;9651;49.138;8.900;2023-11-21T05:17:01;9.50;99.90
19037;DHT22;9651;49.138;8.900;2023-11-21T05:21:04;9.50;99.90
19037;DHT22;9651;49.138;8.900;2023-11-21T05:25:07;9.50;99.90
19037;DHT22;9651;49.138;8.900;2023-11-21T05:29:09;9.50;99.90
19037;DHT22;9651;49.138;8.900;2023-11-21T05:33:11;9.50;99.90
19037;DHT22;9651;49.138;8.900;2023-11-21T05:37:14;9.50;99.90
19037;DHT22;9651;49.138;8.900;2023-11-21T05:41:18;9.50;99.90
19037;DHT22;9651;49.138;8.900;2023-11-21T05:45:20;9.50;99.90
19037;DHT22;9651;49.138;8.900;2023-11-21T05:49:21;9.50;99.90
19037;DHT22;9651;49.138;8.900;2023-11-21T05:53:25;9.50;99.90
19037;DHT22;9651;49.138;8.900;2023-11-21T05:57:26;9.50;99.90
19037;DHT22;9651;49.138;8.900;2023-11-21T06:01:28;9.50;99.90
19037;DHT22;9651;49.138;8.900;2023-11-21T06:05:30;9.40;99.90
19037;DHT22;9651;49.138;8.900;2023-11-21T06:09:34;9.40;99.90
19037;DHT22;9651;49.138;8.900;2023-11-21T06:13:36;9.40;99.90
19037;DHT22;9651;49.138;8.900;2023-11-21T06:17:38;9.40;99.90
19037;DHT22;9651;49.138;8.900;2023-11-21T06:21:40;9.40;99.90
19037;DHT22;9651;49.138;8.900;2023-11-21T06:25:43;9.40;99.90
19037;DHT22;9651;49.138;8.900;2023-11-21T06:29:45;9.40;99.90
19037;DHT22;9651;49.138;8.900;2023-11-21T06:33:47;9.30;99.90
19037;DHT22;9651;49.138;8.900;2023-11-21T06:37:50;9.30;99.90
19037;DHT22;9651;49.138;8.900;2023-11-21T06:41:53;9.30;99.90
19037;DHT22;9651;49.138;8.900;2023-11-21T06:45:56;9.20;99.90
19037;DHT22;9651;49.138;8.900;2023-11-21T06:49:59;9.20;99.90
19037;DHT22;9651;49.138;8.900;2023-11-21T06:54:01;9.20;99.90
19037;DHT22;9651;49.138;8.900;2023-11-21T06:58:04;9.20;99.90
19037;DHT22;9651;49.138;8.900;2023-11-21T07:02:06;9.20;99.90
19037;DHT22;9651;49.138;8.900;2023-11-21T07:06:08;9.20;99.90
19037;DHT22;9651;49.138;8.900;2023-11-21T07:10:10;9.20;99.90
19037;DHT22;9651;49.138;8.900;2023-11-21T07:14:14;9.20;99.90
19037;DHT22;9651;49.138;8.900;2023-11-21T07:18:17;9.30;99.90
19037;DHT22;9651;49.138;8.900;2023-11-21T07:22:19;9.30;99.90
19037;DHT22;9651;49.138;8.900;2023-11-21T07:26:22;9.30;99.90
19037;DHT22;9651;49.138;8.900;2023-11-21T07:30:26;9.40;99.90
19037;DHT22;9651;49.138;8.900;2023-11-21T07:34:28;9.40;99.90
19037;DHT22;9651;49.138;8.900;2023-11-21T07:38:30;9.40;99.90
19037;DHT22;9651;49.138;8.900;2023-11-21T07:42:34;9.40;99.90
19037;DHT22;9651;49.138;8.900;2023-11-21T07:46:37;9.50;99.90
19037;DHT22;9651;49.138;8.900;2023-11-21T07:50:39;9.50;99.90
19037;DHT22;9651;49.138;8.900;2023-11-21T07:54:41;9.60;99.90
19037;DHT22;9651;49.138;8.900;2023-11-21T07:58:42;9.60;99.90
19037;DHT22;9651;49.138;8.900;2023-11-21T08:02:46;9.60;99.90
19037;DHT22;9651;49.138;8.900;2023-11-21T08:06:48;9.70;99.90
19037;DHT22;9651;49.138;8.900;2023-11-21T08:10:50;9.70;99.90
19037;DHT22;9651;49.138;8.900;2023-11-21T08:14:56;9.70;99.90
19037;DHT22;9651;49.138;8.900;2023-11-21T08:18:59;9.80;99.90
19037;DHT22;9651;49.138;8.900;2023-11-21T08:23:01;9.80;99.90
19037;DHT22;9651;49.138;8.900;2023-11-21T08:27:03;9.90;99.90
19037;DHT22;9651;49.138;8.900;2023-11-21T08:31:07;9.90;99.90
19037;DHT22;9651;49.138;8.900;2023-11-21T08:35:11;9.90;99.90
19037;DHT22;9651;49.138;8.900;2023-11-21T08:39:13;10.00;99.90
19037;DHT22;9651;49.138;8.900;2023-11-21T08:43:17;10.10;99.90
19037;DHT22;9651;49.138;8.900;2023-11-21T08:47:20;10.10;99.90
19037;DHT22;9651;49.138;8.900;2023-11-21T08:51:26;10.20;99.90
19037;DHT22;9651;49.138;8.900;2023-11-21T08:55:28;10.30;99.90
19037;DHT22;9651;49.138;8.900;2023-11-21T08:59:30;10.20;99.90
19037;DHT22;9651;49.138;8.900;2023-11-21T09:03:32;10.20;99.90
19037;DHT22;9651;49.138;8.900;2023-11-21T09:07:36;10.30;99.90
19037;DHT22;9651;49.138;8.900;2023-11-21T09:11:38;10.40;99.90
19037;DHT22;9651;49.138;8.900;2023-11-21T09:15:39;10.60;99.90
19037;DHT22;9651;49.138;8.900;2023-11-21T09:19:41;10.70;99.90
19037;DHT22;9651;49.138;8.900;2023-11-21T09:23:47;10.80;99.90
19037;DHT22;9651;49.138;8.900;2023-11-21T09:27:49;10.90;99.90
19037;DHT22;9651;49.138;8.900;2023-11-21T09:31:51;11.00;99.90
19037;DHT22;9651;49.138;8.900;2023-11-21T09:35:55;10.90;99.90
19037;DHT22;9651;49.138;8.900;2023-11-21T09:39:58;10.90;99.90
19037;DHT22;9651;49.138;8.900;2023-11-21T09:44:02;11.00;99.90
19037;DHT22;9651;49.138;8.900;2023-11-21T09:48:09;10.90;99.90
19037;DHT22;9651;49.138;8.900;2023-11-21T09:52:17;10.90;99.90
19037;DHT22;9651;49.138;8.900;2023-11-21T09:56:21;10.80;99.90
19037;DHT22;9651;49.138;8.900;2023-11-21T10:00:24;10.80;99.90
19037;DHT22;9651;49.138;8.900;2023-11-21T10:04:28;10.80;99.90
19037;DHT22;9651;49.138;8.900;2023-11-21T10:08:30;10.80;99.90
19037;DHT22;9651;49.138;8.900;2023-11-21T10:12:35;10.80;99.90
19037;DHT22;9651;49.138;8.900;2023-11-21T10:16:38;10.80;99.90
19037;DHT22;9651;49.138;8.900;2023-11-21T10:20:40;10.90;99.90
19037;DHT22;9651;49.138;8.900;2023-11-21T10:24:42;11.10;99.90
19037;DHT22;9651;49.138;8.900;2023-11-21T10:28:56;11.40;99.90
19037;DHT22;9651;49.138;8.900;2023-11-21T10:32:59;11.80;99.90
19037;DHT22;9651;49.138;8.900;2023-11-21T10:37:11;12.00;99.90
19037;DHT22;9651;49.138;8.900;2023-11-21T10:41:13;12.10;99.90
19037;DHT22;9651;49.138;8.900;2023-11-21T10:45:17;12.00;99.90
19037;DHT22;9651;49.138;8.900;2023-11-21T10:49:20;11.90;99.90
19037;DHT22;9651;49.138;8.900;2023-11-21T10:53:22;11.90;99.90
19037;DHT22;9651;49.138;8.900;2023-11-21T10:57:25;11.80;99.90
19037;DHT22;9651;49.138;8.900;2023-11-21T11:01:30;11.70;99.90
19037;DHT22;9651;49.138;8.900;2023-11-21T11:05:33;11.60;99.90
19037;DHT22;9651;49.138;8.900;2023-11-21T11:09:36;11.40;99.90
19037;DHT22;9651;49.138;8.900;2023-11-21T11:13:38;11.40;99.90
19037;DHT22;9651;49.138;8.900;2023-11-21T11:17:42;11.40;99.90
19037;DHT22;9651;49.138;8.900;2023-11-21T11:21:51;11.30;99.90
19037;DHT22;9651;49.138;8.900;2023-11-21T11:26:07;11.30;99.90
19037;DHT22;9651;49.138;8.900;2023-11-21T11:30:19;11.20;99.90
19037;DHT22;9651;49.138;8.900;2023-11-21T11:34:32;11.20;99.90
19037;DHT22;9651;49.138;8.900;2023-11-21T11:38:34;11.10;99.90
19037;DHT22;9651;49.138;8.900;2023-11-21T11:42:36;11.20;99.90
19037;DHT22;9651;49.138;8.900;2023-11-21T11:46:42;11.20;99.90
19037;DHT22;9651;49.138;8.900;2023-11-21T11:55:17;11.20;99.90
19037;DHT22;9651;49.138;8.900;2023-11-21T11:59:19;11.30;99.90
19037;DHT22;9651;49.138;8.900;2023-11-21T12:03:21;11.40;99.90
19037;DHT22;9651;49.138;8.900;2023-11-21T12:07:23;11.50;99.90
19037;DHT22;9651;49.138;8.900;2023-11-21T12:11:31;11.50;99.90
19037;DHT22;9651;49.138;8.900;2023-11-21T12:15:34;11.60;99.90
19037;DHT22;9651;49.138;8.900;2023-11-21T12:19:36;11.60;99.90
19037;DHT22;9651;49.138;8.900;2023-11-21T12:23:38;11.60;99.90
19037;DHT22;9651;49.138;8.900;2023-11-21T12:27:43;11.60;99.90
19037;DHT22;9651;49.138;8.900;2023-11-21T12:31:48;11.60;99.90
19037;DHT22;9651;49.138;8.900;2023-11-21T12:35:50;11.70;99.90
19037;DHT22;9651;49.138;8.900;2023-11-21T12:39:53;12.00;99.90
19037;DHT22;9651;49.138;8.900;2023-11-21T12:43:59;12.30;99.90
19037;DHT22;9651;49.138;8.900;2023-11-21T12:48:02;12.60;99.90
19037;DHT22;9651;49.138;8.900;2023-11-21T12:52:08;12.50;99.90
19037;DHT22;9651;49.138;8.900;2023-11-21T12:56:10;12.40;99.90
19037;DHT22;9651;49.138;8.900;2023-11-21T13:00:16;12.30;99.90
19037;DHT22;9651;49.138;8.900;2023-11-21T13:04:30;12.30;99.90
19037;DHT22;9651;49.138;8.900;2023-11-21T13:08:32;12.10;99.90
19037;DHT22;9651;49.138;8.900;2023-11-21T13:12:34;11.90;99.90
19037;DHT22;9651;49.138;8.900;2023-11-21T13:16:39;11.80;99.90
19037;DHT22;9651;49.138;8.900;2023-11-21T13:20:46;11.60;99.90
19037;DHT22;9651;49.138;8.900;2023-11-21T13:24:48;11.60;99.90
19037;DHT22;9651;49.138;8.900;2023-11-21T13:28:50;11.60;99.90
19037;DHT22;9651;49.138;8.900;2023-11-21T13:32:54;11.70;99.90
19037;DHT22;9651;49.138;8.900;2023-11-21T13:36:57;11.80;99.90
19037;DHT22;9651;49.138;8.900;2023-11-21T13:41:01;11.70;99.90
19037;DHT22;9651;49.138;8.900;2023-11-21T13:45:08;11.80;99.90
19037;DHT22;9651;49.138;8.900;2023-11-21T13:49:11;11.90;99.90
19037;DHT22;9651;49.138;8.900;2023-11-21T13:53:14;11.90;99.90
19037;DHT22;9651;49.138;8.900;2023-11-21T13:57:22;11.90;99.90
19037;DHT22;9651;49.138;8.900;2023-11-21T14:01:25;11.80;99.90
19037;DHT22;9651;49.138;8.900;2023-11-21T14:05:47;11.80;99.90
19037;DHT22;9651;49.138;8.900;2023-11-21T14:09:51;11.80;99.90
19037;DHT22;9651;49.138;8.900;2023-11-21T14:13:53;11.80;99.90
19037;DHT22;9651;49.138;8.900;2023-11-21T14:17:55;11.80;99.90
19037;DHT22;9651;49.138;8.900;2023-11-21T14:21:58;11.80;99.90
19037;DHT22;9651;49.138;8.900;2023-11-21T14:26:00;11.70;99.90
19037;DHT22;9651;49.138;8.900;2023-11-21T14:30:02;11.60;99.90
19037;DHT22;9651;49.138;8.900;2023-11-21T14:34:05;11.50;99.90
19037;DHT22;9651;49.138;8.900;2023-11-21T14:38:09;11.40;99.90
19037;DHT22;9651;49.138;8.900;2023-11-21T14:42:11;11.40;99.90
19037;DHT22;9651;49.138;8.900;2023-11-21T14:46:15;11.40;99.90
19037;DHT22;9651;49.138;8.900;2023-11-21T14:50:20;11.30;99.90
19037;DHT22;9651;49.138;8.900;2023-11-21T14:54:40;11.20;99.90
19037;DHT22;9651;49.138;8.900;2023-11-21T14:58:45;11.20;99.90
19037;DHT22;9651;49.138;8.900;2023-11-21T15:02:48;11.10;99.90
19037;DHT22;9651;49.138;8.900;2023-11-21T15:06:50;11.10;99.90
19037;DHT22;9651;49.138;8.900;2023-11-21T15:10:55;11.00;99.90
19037;DHT22;9651;49.138;8.900;2023-11-21T15:14:57;11.00;99.90
19037;DHT22;9651;49.138;8.900;2023-11-21T15:18:59;11.00;99.90
19037;DHT22;9651;49.138;8.900;2023-11-21T15:23:01;10.90;99.90
19037;DHT22;9651;49.138;8.900;2023-11-21T15:27:06;10.90;99.90
19037;DHT22;9651;49.138;8.900;2023-11-21T15:31:08;10.80;99.90
19037;DHT22;9651;49.138;8.900;2023-11-21T15:35:10;10.80;99.90
19037;DHT22;9651;49.138;8.900;2023-11-21T15:39:14;10.70;99.90
19037;DHT22;9651;49.138;8.900;2023-11-21T15:43:17;10.60;99.90
19037;DHT22;9651;49.138;8.900;2023-11-21T15:47:19;10.60;99.90
19037;DHT22;9651;49.138;8.900;2023-11-21T15:51:21;10.50;99.90
19037;DHT22;9651;49.138;8.900;2023-11-21T15:55:24;10.50;99.90
19037;DHT22;9651;49.138;8.900;2023-11-21T15:59:27;10.40;99.90
19037;DHT22;9651;49.138;8.900;2023-11-21T16:03:31;10.40;99.90
19037;DHT22;9651;49.138;8.900;2023-11-21T16:07:34;10.30;99.90
19037;DHT22;9651;49.138;8.900;2023-11-21T16:11:37;10.30;99.90
19037;DHT22;9651;49.138;8.900;2023-11-21T16:15:40;10.20;99.90
19037;DHT22;9651;49.138;8.900;2023-11-21T16:19:43;10.20;99.90
19037;DHT22;9651;49.138;8.900;2023-11-21T16:23:45;10.10;99.90
19037;DHT22;9651;49.138;8.900;2023-11-21T16:27:47;10.10;99.90
19037;DHT22;9651;49.138;8.900;2023-11-21T16:31:51;10.10;99.90
19037;DHT22;9651;49.138;8.900;2023-11-21T16:35:54;10.10;99.90
19037;DHT22;9651;49.138;8.900;2023-11-21T16:39:56;10.10;99.90
19037;DHT22;9651;49.138;8.900;2023-11-21T16:43:58;10.10;99.90
19037;DHT22;9651;49.138;8.900;2023-11-21T16:48:04;10.10;99.90
19037;DHT22;9651;49.138;8.900;2023-11-21T16:52:07;10.10;99.90
19037;DHT22;9651;49.138;8.900;2023-11-21T16:56:09;10.10;99.90
19037;DHT22;9651;49.138;8.900;2023-11-21T17:00:12;10.10;99.90
19037;DHT22;9651;49.138;8.900;2023-11-21T17:04:15;10.00;99.90
19037;DHT22;9651;49.138;8.900;2023-11-21T17:08:19;10.00;99.90
19037;DHT22;9651;49.138;8.900;2023-11-21T17:12:21;10.00;99.90
19037;DHT22;9651;49.138;8.900;2023-11-21T17:16:23;9.90;99.90
19037;DHT22;9651;49.138;8.900;2023-11-21T17:20:26;10.00;99.90
19037;DHT22;9651;49.138;8.900;2023-11-21T17:24:28;10.00;99.90
19037;DHT22;9651;49.138;8.900;2023-11-21T17:28:30;10.00;99.90
19037;DHT22;9651;49.138;8.900;2023-11-21T17:32:32;10.00;99.90
19037;DHT22;9651;49.138;8.900;2023-11-21T17:36:37;10.00;99.90
19037;DHT22;9651;49.138;8.900;2023-11-21T17:40:41;10.10;99.90
19037;DHT22;9651;49.138;8.900;2023-11-21T17:44:44;10.10;99.90
19037;DHT22;9651;49.138;8.900;2023-11-21T17:48:47;10.10;99.90
19037;DHT22;9651;49.138;8.900;2023-11-21T17:52:51;10.00;99.90
19037;DHT22;9651;49.138;8.900;2023-11-21T17:56:54;10.00;99.90
19037;DHT22;9651;49.138;8.900;2023-11-21T18:00:57;9.90;99.90
19037;DHT22;9651;49.138;8.900;2023-11-21T18:05:00;9.80;99.90
19037;DHT22;9651;49.138;8.900;2023-11-21T18:09:03;9.80;99.90
19037;DHT22;9651;49.138;8.900;2023-11-21T18:13:08;9.70;99.90
19037;DHT22;9651;49.138;8.900;2023-11-21T18:17:11;9.70;99.90
19037;DHT22;9651;49.138;8.900;2023-11-21T18:21:13;9.70;99.90
19037;DHT22;9651;49.138;8.900;2023-11-21T18:25:16;9.70;99.90
19037;DHT22;9651;49.138;8.900;2023-11-21T18:29:18;9.70;99.90
19037;DHT22;9651;49.138;8.900;2023-11-21T18:33:20;9.60;99.90
19037;DHT22;9651;49.138;8.900;2023-11-21T18:37:23;9.60;99.90
19037;DHT22;9651;49.138;8.900;2023-11-21T18:41:26;9.60;99.90
19037;DHT22;9651;49.138;8.900;2023-11-21T18:45:28;9.60;99.90
19037;DHT22;9651;49.138;8.900;2023-11-21T18:49:30;9.60;99.90
19037;DHT22;9651;49.138;8.900;2023-11-21T18:53:32;9.60;99.90
19037;DHT22;9651;49.138;8.900;2023-11-21T18:57:37;9.50;99.90
19037;DHT22;9651;49.138;8.900;2023-11-21T19:01:38;9.50;99.90
19037;DHT22;9651;49.138;8.900;2023-11-21T19:05:42;9.50;99.90
19037;DHT22;9651;49.138;8.900;2023-11-21T19:09:44;9.50;99.90
19037;DHT22;9651;49.138;8.900;2023-11-21T19:13:47;9.50;99.90
19037;DHT22;9651;49.138;8.900;2023-11-21T19:17:49;9.60;99.90
19037;DHT22;9651;49.138;8.900;2023-11-21T19:21:52;9.50;99.90
19037;DHT22;9651;49.138;8.900;2023-11-21T19:25:54;9.50;99.90
19037;DHT22;9651;49.138;8.900;2023-11-21T19:29:57;9.50;99.90
19037;DHT22;9651;49.138;8.900;2023-11-21T19:33:59;9.40;99.90
19037;DHT22;9651;49.138;8.900;2023-11-21T19:38:01;9.40;99.90
19037;DHT22;9651;49.138;8.900;2023-11-21T19:42:04;9.40;99.90
19037;DHT22;9651;49.138;8.900;2023-11-21T19:46:07;9.50;99.90
19037;DHT22;9651;49.138;8.900;2023-11-21T19:50:09;9.40;99.90
19037;DHT22;9651;49.138;8.900;2023-11-21T19:54:11;9.40;99.90
19037;DHT22;9651;49.138;8.900;2023-11-21T19:58:13;9.40;99.90
19037;DHT22;9651;49.138;8.900;2023-11-21T20:02:19;9.40;99.90
19037;DHT22;9651;49.138;8.900;2023-11-21T20:06:21;9.40;99.90
19037;DHT22;9651;49.138;8.900;2023-11-21T20:10:23;9.40;99.90
19037;DHT22;9651;49.138;8.900;2023-11-21T20:14:25;9.40;99.90
19037;DHT22;9651;49.138;8.900;2023-11-21T20:18:31;9.30;99.90
19037;DHT22;9651;49.138;8.900;2023-11-21T20:22:33;9.30;99.90
19037;DHT22;9651;49.138;8.900;2023-11-21T20:26:36;9.30;99.90
19037;DHT22;9651;49.138;8.900;2023-11-21T20:30:42;9.20;99.90
19037;DHT22;9651;49.138;8.900;2023-11-21T20:34:45;9.10;99.90
19037;DHT22;9651;49.138;8.900;2023-11-21T20:38:47;9.10;99.90
19037;DHT22;9651;49.138;8.900;2023-11-21T20:42:49;9.00;99.90
19037;DHT22;9651;49.138;8.900;2023-11-21T20:46:52;9.00;99.90
19037;DHT22;9651;49.138;8.900;2023-11-21T20:50:56;9.00;99.90
19037;DHT22;9651;49.138;8.900;2023-11-21T20:54:57;9.00;99.90
19037;DHT22;9651;49.138;8.900;2023-11-21T20:59:00;9.00;99.90
19037;DHT22;9651;49.138;8.900;2023-11-21T21:03:06;8.90;99.90
19037;DHT22;9651;49.138;8.900;2023-11-21T21:07:09;8.90;99.90
19037;DHT22;9651;49.138;8.900;2023-11-21T21:11:11;8.90;99.90
19037;DHT22;9651;49.138;8.900;2023-11-21T21:15:13;8.90;99.90
19037;DHT22;9651;49.138;8.900;2023-11-21T21:19:15;9.00;99.90
19037;DHT22;9651;49.138;8.900;2023-11-21T21:23:20;9.00;99.90
19037;DHT22;9651;49.138;8.900;2023-11-21T21:27:22;9.00;99.90
19037;DHT22;9651;49.138;8.900;2023-11-21T21:31:24;9.00;99.90
19037;DHT22;9651;49.138;8.900;2023-11-21T21:35:26;9.00;99.90
19037;DHT22;9651;49.138;8.900;2023-11-21T21:39:30;8.90;99.90
19037;DHT22;9651;49.138;8.900;2023-11-21T21:43:32;8.90;99.90
19037;DHT22;9651;49.138;8.900;2023-11-21T21:47:34;8.90;99.90
19037;DHT22;9651;49.138;8.900;2023-11-21T21:51:36;8.90;99.90
19037;DHT22;9651;49.138;8.900;2023-11-21T21:55:39;8.90;99.90
19037;DHT22;9651;49.138;8.900;2023-11-21T21:59:41;8.80;99.90
19037;DHT22;9651;49.138;8.900;2023-11-21T22:03:44;8.80;99.90
19037;DHT22;9651;49.138;8.900;2023-11-21T22:07:46;8.80;99.90
19037;DHT22;9651;49.138;8.900;2023-11-21T22:11:49;8.90;99.90
19037;DHT22;9651;49.138;8.900;2023-11-21T22:15:51;8.90;99.90
19037;DHT22;9651;49.138;8.900;2023-11-21T22:19:53;8.90;99.90
19037;DHT22;9651;49.138;8.900;2023-11-21T22:23:54;8.80;99.90
19037;DHT22;9651;49.138;8.900;2023-11-21T22:27:58;8.80;99.90
19037;DHT22;9651;49.138;8.900;2023-11-21T22:32:01;8.80;99.90
19037;DHT22;9651;49.138;8.900;2023-11-21T22:36:03;8.70;99.90
19037;DHT22;9651;49.138;8.900;2023-11-21T22:40:06;8.70;99.90
19037;DHT22;9651;49.138;8.900;2023-11-21T22:44:10;8.70;99.90
19037;DHT22;9651;49.138;8.900;2023-11-21T22:48:12;8.80;99.90
19037;DHT22;9651;49.138;8.900;2023-11-21T22:52:13;8.80;99.90
19037;DHT22;9651;49.138;8.900;2023-11-21T22:56:15;8.80;99.90
19037;DHT22;9651;49.138;8.900;2023-11-21T23:00:23;8.80;99.90
19037;DHT22;9651;49.138;8.900;2023-11-21T23:04:30;8.80;99.90
19037;DHT22;9651;49.138;8.900;2023-11-21T23:08:32;8.90;99.90
19037;DHT22;9651;49.138;8.900;2023-11-21T23:12:34;8.90;99.90
19037;DHT22;9651;49.138;8.900;2023-11-21T23:16:38;8.50;99.90
19037;DHT22;9651;49.138;8.900;2023-11-21T23:20:40;8.40;99.90
19037;DHT22;9651;49.138;8.900;2023-11-21T23:24:42;8.20;99.90
19037;DHT22;9651;49.138;8.900;2023-11-21T23:28:44;8.00;99.90
19037;DHT22;9651;49.138;8.900;2023-11-21T23:32:47;7.90;99.90
19037;DHT22;9651;49.138;8.900;2023-11-21T23:36:50;7.90;99.90
19037;DHT22;9651;49.138;8.900;2023-11-21T23:40:53;7.80;99.90
19037;DHT22;9651;49.138;8.900;2023-11-21T23:44:55;7.80;99.90
19037;DHT22;9651;49.138;8.900;2023-11-21T23:48:58;7.50;99.90
19037;DHT22;9651;49.138;8.900;2023-11-21T23:53:00;7.50;99.90
19037;DHT22;9651;49.138;8.900;2023-11-21T23:57:02;7.60;99.90
